createdAt,value
2022-09-14T00:01:56.158Z,19.07
2022-09-14T00:04:24.895Z,20.63
2022-09-14T00:06:57.111Z,20.67
2022-09-14T00:09:27.827Z,22.03
2022-09-14T00:11:56.511Z,19.77
2022-09-14T00:14:24.784Z,20.60
2022-09-14T00:16:53.298Z,20.10
2022-09-14T00:19:24.620Z,19.60
2022-09-14T00:22:00.884Z,20.73
2022-09-14T00:24:31.494Z,17.77
2022-09-14T00:27:00.000Z,19.50
2022-09-14T00:29:28.116Z,17.83
2022-09-14T00:31:58.919Z,18.10
2022-09-14T00:34:27.140Z,19.37
2022-09-14T00:36:57.305Z,20.33
2022-09-14T00:39:28.242Z,18.87
2022-09-14T00:41:56.638Z,22.33
2022-09-14T00:45:10.428Z,18.37
2022-09-14T00:47:38.867Z,22.10
2022-09-14T00:50:09.582Z,18.90
2022-09-14T00:52:44.053Z,17.47
2022-09-14T00:55:15.126Z,17.03
2022-09-14T00:57:46.602Z,19.77
2022-09-14T01:00:17.807Z,19.77
2022-09-14T01:02:46.708Z,18.87
2022-09-14T01:05:15.236Z,20.07
2022-09-14T01:11:06.540Z,21.77
2022-09-14T01:13:48.544Z,21.30
2022-09-14T01:16:25.483Z,22.67
2022-09-14T01:19:01.419Z,22.20
2022-09-14T01:21:33.243Z,19.90
2022-09-14T01:24:08.670Z,20.53
2022-09-14T01:27:32.241Z,21.13
2022-09-14T01:30:24.529Z,21.63
2022-09-14T01:32:57.549Z,21.20
2022-09-14T01:35:31.015Z,20.50
2022-09-14T01:38:04.507Z,24.73
2022-09-14T01:40:37.894Z,23.83
2022-09-14T01:43:11.840Z,23.20
2022-09-14T01:45:48.848Z,25.93
2022-09-14T01:48:21.479Z,25.83
2022-09-14T01:50:55.037Z,29.93
2022-09-14T01:53:28.831Z,29.97
2022-09-14T01:56:02.841Z,28.17
2022-09-14T01:58:38.558Z,29.03
2022-09-14T02:01:11.780Z,27.27
2022-09-14T02:03:45.369Z,34.23
2022-09-14T02:06:19.231Z,30.93
2022-09-14T02:08:47.732Z,34.03
2022-09-14T02:11:15.853Z,34.33
2022-09-14T02:13:44.158Z,35.30
2022-09-14T02:16:14.854Z,35.27
2022-09-14T02:18:43.935Z,37.20
2022-09-14T02:21:16.923Z,38.43
2022-09-14T02:23:45.980Z,34.77
2022-09-14T02:26:14.714Z,34.03
2022-09-14T02:28:43.346Z,36.23
2022-09-14T02:31:23.673Z,32.33
2022-09-14T02:34:02.890Z,33.87
2022-09-14T02:36:41.595Z,35.17
2022-09-14T02:39:23.015Z,35.30
2022-09-14T02:41:59.431Z,30.90
2022-09-14T02:44:39.660Z,32.37
2022-09-14T02:47:19.008Z,30.47
2022-09-14T02:49:59.487Z,30.07
2022-09-14T02:52:35.481Z,32.93
2022-09-14T02:55:12.039Z,31.60
2022-09-14T02:58:01.917Z,29.43
2022-09-14T03:00:31.962Z,29.10
2022-09-14T03:03:01.986Z,27.97
2022-09-14T03:05:30.980Z,28.53
2022-09-14T03:08:02.238Z,29.67
2022-09-14T03:10:32.609Z,26.80
2022-09-14T03:13:01.246Z,25.10
2022-09-14T03:15:34.506Z,27.30
2022-09-14T03:18:04.538Z,27.90
2022-09-14T03:20:34.655Z,29.10
2022-09-14T03:23:03.919Z,29.73
2022-09-14T03:25:33.219Z,27.90
2022-09-14T03:28:02.108Z,29.80
2022-09-14T03:30:31.363Z,28.50
2022-09-14T03:33:03.773Z,27.97
2022-09-14T03:35:36.033Z,31.83
2022-09-14T03:38:05.067Z,29.10
2022-09-14T03:40:33.860Z,30.90
2022-09-14T03:43:02.054Z,28.93
2022-09-14T03:45:30.386Z,30.77
2022-09-14T03:47:58.642Z,30.50
2022-09-14T03:50:28.588Z,29.83
2022-09-14T03:53:00.207Z,29.23
2022-09-14T03:55:28.733Z,29.50
2022-09-14T03:57:57.859Z,30.03
2022-09-14T04:00:26.006Z,29.80
2022-09-14T04:02:54.427Z,31.17
2022-09-14T04:05:23.252Z,25.63
2022-09-14T04:07:51.516Z,26.77
2022-09-14T04:10:21.688Z,32.13
2022-09-14T04:12:49.988Z,29.50
2022-09-14T04:15:20.774Z,28.27
2022-09-14T04:17:50.212Z,29.00
2022-09-14T04:20:19.967Z,30.17
2022-09-14T04:22:51.638Z,27.43
2022-09-14T04:25:23.242Z,28.50
2022-09-14T04:28:16.643Z,29.07
2022-09-14T04:30:43.578Z,26.20
2022-09-14T04:33:12.183Z,22.67
2022-09-14T04:35:42.919Z,21.70
2022-09-14T04:38:11.039Z,18.43
2022-09-14T04:40:43.914Z,18.67
2022-09-14T04:43:11.990Z,18.70
2022-09-14T04:45:41.011Z,20.23
2022-09-14T04:48:09.088Z,19.67
2022-09-14T04:50:37.587Z,18.40
2022-09-14T04:53:06.099Z,19.60
2022-09-14T04:55:34.549Z,20.63
2022-09-14T04:58:04.447Z,20.67
2022-09-14T05:00:36.577Z,19.77
2022-09-14T05:03:06.886Z,18.53
2022-09-14T05:05:40.046Z,18.73
2022-09-14T05:08:11.307Z,19.50
2022-09-14T05:10:39.744Z,20.53
2022-09-14T05:13:09.317Z,20.30
2022-09-14T05:15:37.890Z,18.43
2022-09-14T05:18:06.360Z,18.07
2022-09-14T05:20:36.730Z,19.43
2022-09-14T05:23:06.027Z,19.07
2022-09-14T05:25:34.236Z,20.27
2022-09-14T05:28:02.627Z,20.73
2022-09-14T05:30:32.419Z,20.20
2022-09-14T05:33:02.577Z,19.83
2022-09-14T05:35:30.714Z,18.17
2022-09-14T05:37:59.103Z,18.90
2022-09-14T05:40:27.542Z,17.20
2022-09-14T05:42:55.764Z,16.73
2022-09-14T05:45:23.888Z,16.73
2022-09-14T05:47:53.684Z,16.23
2022-09-14T05:50:23.337Z,16.93
2022-09-14T05:52:51.800Z,15.43
2022-09-14T05:55:20.145Z,15.63
2022-09-14T05:57:50.623Z,16.30
2022-09-14T06:00:21.838Z,14.47
2022-09-14T06:02:51.391Z,14.20
2022-09-14T06:05:21.770Z,13.80
2022-09-14T06:07:52.912Z,13.43
2022-09-14T06:10:21.946Z,11.50
2022-09-14T06:12:54.860Z,12.90
2022-09-14T06:15:24.790Z,10.73
2022-09-14T06:17:54.281Z,10.00
2022-09-14T06:20:26.991Z,10.53
2022-09-14T06:22:57.337Z,10.70
2022-09-14T06:25:28.296Z,9.73
2022-09-14T06:27:56.516Z,9.97
2022-09-14T06:30:24.981Z,12.00
2022-09-14T06:32:53.090Z,10.93
2022-09-14T06:35:21.269Z,10.77
2022-09-14T06:37:50.930Z,8.20
2022-09-14T06:40:19.287Z,8.53
2022-09-14T06:42:47.689Z,9.23
2022-09-14T06:45:15.958Z,8.03
2022-09-14T06:47:44.464Z,9.53
2022-09-14T06:50:12.547Z,6.20
2022-09-14T06:52:40.889Z,7.50
2022-09-14T06:55:11.480Z,5.50
2022-09-14T06:57:42.885Z,5.77
2022-09-14T07:00:13.108Z,5.47
2022-09-14T07:02:42.069Z,6.13
2022-09-14T07:05:10.948Z,5.73
2022-09-14T07:07:39.735Z,5.10
2022-09-14T07:10:08.301Z,5.60
2022-09-14T07:12:38.509Z,5.70
2022-09-14T07:15:09.448Z,6.37
2022-09-14T07:17:37.991Z,6.47
2022-09-14T07:20:07.559Z,5.63
2022-09-14T07:22:36.540Z,5.13
2022-09-14T07:25:05.431Z,5.67
2022-09-14T07:27:34.930Z,4.17
2022-09-14T07:30:05.006Z,4.13
2022-09-14T07:32:33.081Z,4.20
2022-09-14T07:35:03.408Z,4.23
2022-09-14T07:37:31.586Z,4.47
2022-09-14T07:40:01.588Z,4.07
2022-09-14T07:42:30.124Z,4.03
2022-09-14T07:44:58.321Z,4.10
2022-09-14T07:47:28.221Z,6.30
2022-09-14T07:49:56.604Z,5.40
2022-09-14T07:52:24.873Z,5.57
2022-09-14T07:54:56.411Z,5.17
2022-09-14T07:57:45.459Z,4.93
2022-09-14T08:00:16.545Z,5.27
2022-09-14T08:02:50.043Z,4.63
2022-09-14T08:05:25.414Z,5.27
2022-09-14T08:07:57.272Z,4.30
2022-09-14T08:10:29.790Z,5.53
2022-09-14T08:12:58.835Z,3.87
2022-09-14T08:15:31.823Z,4.30
2022-09-14T08:18:02.637Z,4.33
2022-09-14T08:20:32.767Z,4.13
2022-09-14T08:23:02.563Z,4.33
2022-09-14T08:25:31.904Z,5.20
2022-09-14T08:28:00.602Z,5.63
2022-09-14T08:30:28.698Z,3.97
2022-09-14T08:33:01.264Z,4.17
2022-09-14T08:35:56.368Z,4.77
2022-09-14T08:38:20.704Z,4.80
2022-09-14T08:40:53.746Z,4.87
2022-09-14T08:43:26.203Z,5.43
2022-09-14T08:46:03.388Z,6.37
2022-09-14T08:48:39.863Z,6.70
2022-09-14T08:51:09.853Z,5.50
2022-09-14T08:53:42.331Z,5.40
2022-09-14T08:56:16.920Z,6.00
2022-09-14T08:59:09.870Z,5.90
2022-09-14T09:01:50.027Z,6.17
2022-09-14T09:04:38.411Z,6.37
2022-09-14T09:07:17.918Z,7.40
2022-09-14T09:09:50.813Z,6.67
2022-09-14T09:12:23.609Z,7.90
2022-09-14T09:14:56.497Z,6.50
2022-09-14T09:17:31.617Z,6.30
2022-09-14T09:20:08.835Z,6.80
2022-09-14T09:22:43.065Z,4.83
2022-09-14T09:25:19.025Z,6.97
2022-09-14T09:27:47.787Z,5.53
2022-09-14T09:30:17.051Z,6.10
2022-09-14T09:32:47.902Z,7.50
2022-09-14T09:35:21.487Z,5.70
2022-09-14T09:37:51.487Z,6.13
2022-09-14T09:40:34.414Z,6.53
2022-09-14T09:43:13.309Z,5.57
2022-09-14T09:45:52.881Z,6.43
2022-09-14T09:48:23.980Z,5.93
2022-09-14T09:51:08.406Z,5.83
2022-09-14T09:53:41.465Z,8.17
2022-09-14T09:56:18.052Z,5.63
2022-09-14T09:58:51.733Z,7.93
2022-09-14T10:01:28.122Z,6.70
2022-09-14T10:04:06.540Z,5.97
2022-09-14T10:06:44.832Z,5.43
2022-09-14T10:09:20.604Z,5.53
2022-09-14T10:11:50.762Z,5.13
2022-09-14T10:14:26.087Z,6.47
2022-09-14T10:17:02.111Z,5.17
2022-09-14T10:19:31.525Z,5.07
2022-09-14T10:22:28.448Z,5.63
2022-09-14T10:25:02.474Z,5.23
2022-09-14T10:27:44.229Z,6.63
2022-09-14T10:30:17.510Z,4.90
2022-09-14T10:32:54.467Z,5.77
2022-09-14T10:35:25.408Z,6.20
2022-09-14T10:38:10.519Z,6.73
2022-09-14T10:40:45.405Z,7.43
2022-09-14T10:43:18.542Z,7.67
2022-09-14T10:45:53.051Z,7.33
2022-09-14T10:48:37.789Z,8.77
2022-09-14T10:51:30.538Z,9.27
2022-09-14T10:54:10.042Z,10.50
2022-09-14T10:56:59.888Z,9.77
2022-09-14T10:59:33.992Z,13.43
2022-09-14T11:02:22.080Z,12.90
2022-09-14T11:05:05.091Z,14.17
2022-09-14T11:07:40.308Z,14.50
2022-09-14T11:10:21.606Z,13.73
2022-09-14T11:13:18.545Z,14.73
2022-09-14T11:15:59.168Z,16.73
2022-09-14T11:18:35.337Z,13.67
2022-09-14T11:21:13.704Z,14.30
2022-09-14T11:23:49.960Z,13.37
2022-09-14T11:26:31.749Z,15.07
2022-09-14T11:29:13.532Z,14.53
2022-09-14T11:32:16.929Z,15.57
2022-09-14T11:34:47.683Z,16.93
2022-09-14T11:37:18.651Z,16.37
2022-09-14T11:39:57.211Z,18.43
2022-09-14T11:42:30.947Z,18.47
2022-09-14T11:45:06.858Z,18.50
2022-09-14T11:47:45.373Z,18.97
2022-09-14T11:50:21.411Z,18.90
2022-09-14T11:52:54.242Z,19.97
2022-09-14T11:55:23.429Z,21.63
2022-09-14T11:57:54.106Z,24.03
2022-09-14T12:01:02.220Z,22.20
2022-09-14T12:03:55.009Z,20.53
2022-09-14T12:06:54.150Z,22.83
2022-09-14T12:09:55.083Z,23.50
2022-09-14T12:12:39.033Z,20.83
2022-09-14T12:15:33.761Z,23.50
2022-09-14T12:18:26.378Z,22.03
2022-09-14T12:21:09.821Z,26.03
2022-09-14T12:23:48.368Z,26.80
2022-09-14T12:26:38.000Z,23.47
2022-09-14T12:29:30.669Z,26.30
2022-09-14T12:32:26.707Z,26.57
2022-09-14T12:35:32.405Z,28.50
2022-09-14T12:38:22.532Z,31.90
2022-09-14T12:40:52.241Z,30.10
2022-09-14T12:43:56.422Z,26.33
2022-09-14T12:46:40.482Z,26.23
2022-09-14T12:49:39.120Z,24.37
2022-09-14T12:52:23.299Z,27.33
2022-09-14T12:55:07.562Z,23.47
2022-09-14T12:57:50.824Z,21.00
2022-09-14T13:00:22.782Z,25.17
2022-09-14T13:03:21.958Z,22.90
2022-09-14T13:05:51.286Z,22.97
2022-09-14T13:08:24.618Z,23.83
2022-09-14T13:10:53.855Z,21.87
2022-09-14T13:13:28.479Z,22.50
2022-09-14T13:16:01.039Z,21.27
2022-09-14T13:18:33.874Z,22.33
2022-09-14T13:21:04.975Z,23.40
2022-09-14T13:23:38.491Z,28.73
2022-09-14T13:26:12.748Z,20.90
2022-09-14T13:28:47.331Z,20.27
2022-09-14T13:31:21.125Z,23.50
2022-09-14T13:33:51.957Z,21.57
2022-09-14T13:36:26.701Z,22.33
2022-09-14T13:38:57.060Z,22.87
2022-09-14T13:41:25.672Z,25.70
2022-09-14T13:43:57.326Z,24.90
2022-09-14T13:46:28.188Z,22.73
2022-09-14T13:48:57.328Z,23.07
2022-09-14T13:51:27.353Z,22.50
2022-09-14T13:53:57.927Z,24.57
2022-09-14T13:56:31.585Z,21.80
2022-09-14T13:59:31.479Z,25.20
2022-09-14T14:02:03.371Z,22.83
2022-09-14T14:04:36.669Z,22.97
2022-09-14T14:07:19.507Z,24.50
2022-09-14T14:09:52.199Z,21.87
2022-09-14T14:12:26.455Z,22.10
2022-09-14T14:15:01.060Z,22.00
2022-09-14T14:17:36.899Z,23.07
2022-09-14T14:20:32.749Z,19.47
2022-09-14T14:23:04.245Z,23.17
2022-09-14T14:25:34.517Z,24.00
2022-09-14T14:28:04.389Z,24.67
2022-09-14T14:30:43.492Z,23.30
2022-09-14T14:33:13.990Z,22.93
2022-09-14T14:35:43.142Z,21.57
2022-09-14T14:38:14.843Z,24.70
2022-09-14T14:40:44.464Z,156.20
2022-09-14T14:43:18.874Z,24.83
2022-09-14T14:45:49.257Z,23.80
2022-09-14T14:48:19.034Z,28.63
2022-09-14T14:50:50.204Z,24.53
2022-09-14T14:53:18.557Z,22.17
2022-09-14T14:55:51.287Z,23.60
2022-09-14T14:58:22.839Z,23.77
2022-09-14T15:00:56.406Z,26.30
2022-09-14T15:03:25.074Z,23.90
2022-09-14T15:05:56.130Z,29.30
2022-09-14T15:08:28.527Z,23.83
2022-09-14T15:10:57.611Z,25.80
2022-09-14T15:13:28.707Z,23.53
2022-09-14T15:16:30.011Z,21.73
2022-09-14T15:19:21.434Z,20.27
2022-09-14T15:22:03.138Z,23.20
2022-09-14T15:24:40.800Z,23.03
2022-09-14T15:27:11.504Z,23.97
2022-09-14T15:29:44.609Z,22.87
2022-09-14T15:32:18.965Z,22.27
2022-09-14T15:34:50.167Z,23.33
2022-09-14T15:37:23.405Z,22.57
2022-09-14T15:39:52.578Z,22.07
2022-09-14T15:42:22.392Z,23.00
2022-09-14T15:44:51.787Z,22.27
2022-09-14T15:47:21.609Z,20.73
2022-09-14T15:49:53.009Z,22.10
2022-09-14T15:52:21.657Z,21.83
2022-09-14T15:54:49.911Z,20.70
2022-09-14T15:57:18.523Z,22.73
2022-09-14T15:59:48.104Z,21.47
2022-09-14T16:02:17.445Z,24.10
2022-09-14T16:04:47.712Z,22.97
2022-09-14T16:07:16.622Z,20.87
2022-09-14T16:09:45.611Z,19.40
2022-09-14T16:12:14.603Z,18.37
2022-09-14T16:14:42.911Z,21.13
2022-09-14T16:17:11.783Z,18.17
2022-09-14T16:19:40.403Z,17.43
2022-09-14T16:22:12.553Z,16.83
2022-09-14T16:24:41.972Z,11.80
2022-09-14T16:27:13.009Z,9.23
2022-09-14T16:29:41.349Z,8.63
2022-09-14T16:32:09.583Z,8.13
2022-09-14T16:34:38.838Z,7.70
2022-09-14T16:37:07.592Z,8.70
2022-09-14T16:39:39.999Z,11.07
2022-09-14T16:42:09.225Z,13.37
2022-09-14T16:44:37.552Z,12.50
2022-09-14T16:47:06.360Z,11.77
2022-09-14T16:49:37.372Z,14.83
2022-09-14T16:52:05.797Z,14.93
2022-09-14T16:54:34.372Z,6.70
2022-09-14T16:57:04.812Z,4.57
2022-09-14T16:59:33.107Z,2.43
2022-09-14T17:02:02.873Z,3.00
2022-09-14T17:04:31.705Z,2.33
2022-09-14T17:07:00.680Z,2.67
2022-09-14T17:09:31.785Z,2.20
2022-09-14T17:12:00.390Z,2.00
2022-09-14T17:14:38.160Z,3.33
2022-09-14T17:17:07.150Z,1.37
2022-09-14T17:19:39.434Z,3.20
2022-09-14T17:22:10.720Z,1.40
2022-09-14T17:24:40.655Z,2.10
2022-09-14T17:27:09.759Z,1.50
2022-09-14T17:29:40.929Z,1.97
2022-09-14T17:32:14.681Z,2.77
2022-09-14T17:34:43.417Z,3.20
2022-09-14T17:37:12.569Z,3.00
2022-09-14T17:39:44.137Z,1.50
2022-09-14T17:42:12.762Z,1.47
2022-09-14T17:44:44.928Z,2.80
2022-09-14T17:47:15.386Z,1.60
2022-09-14T17:49:44.326Z,2.40
2022-09-14T17:52:13.245Z,3.87
2022-09-14T17:54:43.085Z,1.53
2022-09-14T17:57:13.640Z,1.00
2022-09-14T17:59:44.232Z,2.20
2022-09-14T18:02:14.590Z,2.23
2022-09-14T18:04:48.461Z,0.93
2022-09-14T18:07:19.595Z,1.30
2022-09-14T18:09:48.083Z,1.80
2022-09-14T18:12:21.154Z,1.90
2022-09-14T18:14:51.664Z,2.60
2022-09-14T18:17:20.606Z,2.70
2022-09-14T18:19:55.444Z,3.63
2022-09-14T18:22:25.861Z,4.10
2022-09-14T18:24:54.304Z,2.97
2022-09-14T18:27:24.186Z,3.60
2022-09-14T18:29:59.289Z,6.40
2022-09-14T18:32:30.125Z,4.17
2022-09-14T18:34:58.716Z,3.60
2022-09-14T18:37:27.219Z,2.83
2022-09-14T18:39:57.203Z,2.67
2022-09-14T18:42:25.470Z,3.30
2022-09-14T18:44:56.529Z,2.70
2022-09-14T18:47:25.772Z,2.10
2022-09-14T18:49:54.858Z,3.83
2022-09-14T18:52:25.737Z,2.97
2022-09-14T18:54:54.356Z,3.33
2022-09-14T18:57:24.940Z,2.83
2022-09-14T18:59:59.603Z,4.00
2022-09-14T19:02:28.448Z,2.53
2022-09-14T19:04:57.740Z,3.83
2022-09-14T19:07:27.074Z,4.33
2022-09-14T19:09:57.164Z,1.90
2022-09-14T19:12:25.754Z,3.33
2022-09-14T19:14:55.906Z,5.70
2022-09-14T19:17:24.842Z,4.10
2022-09-14T19:19:53.526Z,3.60
2022-09-14T19:22:21.797Z,5.33
2022-09-14T19:24:50.250Z,4.73
2022-09-14T19:27:19.958Z,2.80
2022-09-14T19:29:50.221Z,3.20
2022-09-14T19:32:21.247Z,4.23
2022-09-14T19:34:50.754Z,4.07
2022-09-14T19:37:20.988Z,5.60
2022-09-14T19:39:49.510Z,6.87
2022-09-14T19:42:20.794Z,6.43
2022-09-14T19:44:55.733Z,5.40
2022-09-14T19:47:31.079Z,6.27
2022-09-14T19:50:06.167Z,6.33
2022-09-14T19:52:34.577Z,5.67
2022-09-14T19:55:04.860Z,5.10
2022-09-14T19:57:35.303Z,5.37
2022-09-14T20:00:04.600Z,4.50
2022-09-14T20:02:40.648Z,4.00
2022-09-14T20:05:10.841Z,5.23
2022-09-14T20:07:39.881Z,4.97
2022-09-14T20:10:10.165Z,4.20
2022-09-14T20:12:38.561Z,5.67
2022-09-14T20:15:08.186Z,6.27
2022-09-14T20:17:38.834Z,5.03
2022-09-14T20:20:08.714Z,6.30
2022-09-14T20:22:37.713Z,4.90
2022-09-14T20:25:07.115Z,4.67
2022-09-14T20:27:35.832Z,5.03
2022-09-14T20:30:04.601Z,5.90
2022-09-14T20:32:34.165Z,5.17
2022-09-14T20:35:06.993Z,5.23
2022-09-14T20:37:35.719Z,6.10
2022-09-14T20:40:03.988Z,7.07
2022-09-14T20:42:32.501Z,5.80
2022-09-14T20:45:01.241Z,6.40
2022-09-14T20:47:31.817Z,5.93
2022-09-14T20:50:03.775Z,5.63
2022-09-14T20:52:35.949Z,6.47
2022-09-14T20:55:06.407Z,5.97
2022-09-14T20:57:34.988Z,5.83
2022-09-14T21:00:03.634Z,5.50
2022-09-14T21:02:34.741Z,5.00
2022-09-14T21:05:04.371Z,5.57
2022-09-14T21:07:33.579Z,5.43
2022-09-14T21:10:03.999Z,4.70
2022-09-14T21:12:32.373Z,5.83
2022-09-14T21:15:00.669Z,4.60
2022-09-14T21:17:32.156Z,4.17
2022-09-14T21:20:00.815Z,4.87
2022-09-14T21:22:29.198Z,4.07
2022-09-14T21:24:58.354Z,4.17
2022-09-14T21:27:28.602Z,3.50
2022-09-14T21:29:56.951Z,4.67
2022-09-14T21:32:25.498Z,4.03
2022-09-14T21:34:54.496Z,4.00
2022-09-14T21:37:26.746Z,4.27
2022-09-14T21:39:55.951Z,4.93
2022-09-14T21:42:25.611Z,5.27
2022-09-14T21:44:56.992Z,7.07
2022-09-14T21:47:26.927Z,5.20
2022-09-14T21:50:03.719Z,5.53
2022-09-14T21:52:32.991Z,5.57
2022-09-14T21:55:02.612Z,4.57
2022-09-14T21:57:31.043Z,5.10
2022-09-14T22:00:03.582Z,4.33
2022-09-14T22:02:32.269Z,5.73
2022-09-14T22:05:00.523Z,5.77
2022-09-14T22:07:29.274Z,5.03
2022-09-14T22:09:58.004Z,4.90
2022-09-14T22:12:26.386Z,6.00
2022-09-14T22:14:55.053Z,5.57
2022-09-14T22:17:36.717Z,6.33
2022-09-14T22:20:05.542Z,7.77
2022-09-14T22:22:34.558Z,5.77
2022-09-14T22:25:03.283Z,5.10
2022-09-14T22:27:32.147Z,5.80
2022-09-14T22:30:00.589Z,7.37
2022-09-14T22:32:32.490Z,5.10
2022-09-14T22:35:00.946Z,4.13
2022-09-14T22:37:31.244Z,5.50
2022-09-14T22:40:00.208Z,4.57
2022-09-14T22:42:29.776Z,6.97
2022-09-14T22:44:58.319Z,5.57
2022-09-14T22:47:26.597Z,4.93
2022-09-14T22:49:56.505Z,5.10
2022-09-14T22:52:26.826Z,8.10
2022-09-14T22:54:55.008Z,5.03
2022-09-14T22:57:24.405Z,4.30
2022-09-14T22:59:52.588Z,5.37
2022-09-14T23:02:20.921Z,8.30
2022-09-14T23:04:50.535Z,5.53
2022-09-14T23:07:20.461Z,5.30
2022-09-14T23:09:49.080Z,4.67
2022-09-14T23:12:22.511Z,6.97
2022-09-14T23:14:53.473Z,8.53
2022-09-14T23:17:24.212Z,7.77
2022-09-14T23:19:54.733Z,7.30
2022-09-14T23:22:24.940Z,7.27
2022-09-14T23:24:54.377Z,6.20
2022-09-14T23:27:23.371Z,7.17
2022-09-14T23:29:51.589Z,7.40
2022-09-14T23:32:21.253Z,7.77
2022-09-14T23:34:49.978Z,6.83
2022-09-14T23:37:18.270Z,7.70
2022-09-14T23:39:52.843Z,8.90
2022-09-14T23:42:22.697Z,8.10
2022-09-14T23:44:51.818Z,7.10
2022-09-14T23:47:22.717Z,9.60
2022-09-14T23:49:51.559Z,6.50
2022-09-14T23:52:20.295Z,8.13
2022-09-14T23:54:49.585Z,6.90
2022-09-14T23:57:21.988Z,6.63
2022-09-14T23:59:50.480Z,7.87
